Time;durP1;ratioP1;P1;durP2;ratioP2;P2;SDS_P1;SDS_P2;PMS_P1;PMS_P2;Temp;Humidity;BMP_temperature;BMP_pressure;BME280_temperature;BME280_humidity;BME280_pressure;Samples;Min_cycle;Max_cycle;Signal;HPM_P1;HPM_P2
2021/09/18 00:00:30;;;;;;;11.95;6.88;;;;;;;5.50;69.56;100453.81;5093584;28;20032;-60
2021/09/18 00:02:55;;;;;;;15.38;7.28;;;;;;;5.66;68.76;100463.69;5094051;28;20035;-61
2021/09/18 00:05:21;;;;;;;12.85;7.22;;;;;;;5.54;69.37;100455.38;5093837;28;20039;-63
2021/09/18 00:07:46;;;;;;;12.25;6.68;;;;;;;5.52;69.58;100453.75;5092954;28;20392;-62
2021/09/18 00:10:12;;;;;;;12.80;6.13;;;;;;;5.52;69.47;100464.38;5092509;28;20131;-62
2021/09/18 00:12:37;;;;;;;12.90;6.82;;;;;;;5.60;68.78;100457.75;5093987;28;20082;-61
2021/09/18 00:15:03;;;;;;;11.52;6.50;;;;;;;5.69;68.62;100460.88;5092296;28;20032;-61
2021/09/18 00:17:29;;;;;;;15.90;6.80;;;;;;;5.74;68.30;100464.16;5093450;28;20093;-62
2021/09/18 00:19:55;;;;;;;11.18;6.53;;;;;;;5.43;69.34;100458.59;5093195;28;20452;-61
2021/09/18 00:22:21;;;;;;;11.32;6.55;;;;;;;5.30;69.59;100453.03;5093702;28;20042;-62
2021/09/18 00:24:46;;;;;;;15.48;6.45;;;;;;;5.22;70.07;100456.97;5092886;28;20434;-62
2021/09/18 00:27:11;;;;;;;9.73;5.88;;;;;;;5.27;70.15;100463.75;5092053;28;20388;-60
2021/09/18 00:29:37;;;;;;;10.50;6.18;;;;;;;5.27;69.32;100458.44;5093382;28;20035;-62
2021/09/18 00:32:04;;;;;;;11.20;6.18;;;;;;;5.03;69.77;100429.50;5092332;28;20046;-62
2021/09/18 00:34:29;;;;;;;12.60;5.93;;;;;;;5.19;69.51;100454.47;5091603;28;20029;-61
2021/09/18 00:36:55;;;;;;;11.77;6.07;;;;;;;5.22;69.35;100456.97;5092553;28;20059;-59
2021/09/18 00:39:20;;;;;;;12.15;6.18;;;;;;;5.23;69.37;100467.50;5093130;28;20044;-59
2021/09/18 00:41:46;;;;;;;8.15;5.38;;;;;;;5.09;69.61;100460.19;5103799;28;20040;-61
2021/09/18 00:44:19;;;;;;;11.40;5.82;;;;;;;5.08;70.35;100465.59;5112492;28;20031;-61
2021/09/18 00:46:52;;;;;;;10.35;5.20;;;;;;;4.96;70.50;100465.22;5112245;28;20114;-60
2021/09/18 00:49:19;;;;;;;10.55;5.00;;;;;;;5.08;69.69;100455.00;5113114;28;20042;-61
2021/09/18 00:51:45;;;;;;;13.75;5.78;;;;;;;5.27;69.47;100466.41;5113431;28;20114;-61
2021/09/18 00:54:13;;;;;;;10.15;5.03;;;;;;;4.76;69.96;100430.81;5113081;28;20463;-59
2021/09/18 00:56:39;;;;;;;7.25;3.88;;;;;;;5.22;69.18;100473.75;5112487;28;20036;-62
2021/09/18 00:59:05;;;;;;;10.73;5.47;;;;;;;5.10;69.86;100479.66;5112718;28;20030;-59
2021/09/18 01:01:30;;;;;;;11.75;5.60;;;;;;;4.96;70.32;100464.38;5112494;28;20027;-61
2021/09/18 01:04:00;;;;;;;11.77;5.50;;;;;;;4.95;70.28;100475.94;5113260;28;20024;-61
2021/09/18 01:06:28;;;;;;;11.00;6.10;;;;;;;4.93;70.28;100489.25;5112920;27;20048;-61
2021/09/18 01:08:56;;;;;;;9.20;5.47;;;;;;;4.94;70.61;100485.69;5112573;28;20538;-60
2021/09/18 01:11:22;;;;;;;9.90;5.03;;;;;;;4.89;70.19;100471.75;5112699;28;20027;-61
2021/09/18 01:13:49;;;;;;;11.25;5.00;;;;;;;4.93;70.06;100478.66;5113047;28;20489;-60
2021/09/18 01:16:15;;;;;;;9.02;4.45;;;;;;;4.99;70.06;100483.66;5112815;28;20027;-61
2021/09/18 01:18:40;;;;;;;10.15;5.20;;;;;;;4.93;70.29;100483.06;5093909;28;20039;-60
2021/09/18 01:21:09;;;;;;;10.40;5.15;;;;;;;4.91;70.53;100491.13;5112889;28;20061;-61
2021/09/18 01:23:35;;;;;;;10.88;5.28;;;;;;;4.79;70.83;100500.50;5112558;28;20047;-61
2021/09/18 01:26:00;;;;;;;7.50;4.97;;;;;;;4.95;70.17;100489.19;5111949;28;20124;-61
2021/09/18 01:28:26;;;;;;;7.88;5.03;;;;;;;4.92;70.79;100487.53;5112581;28;20121;-60
2021/09/18 01:30:52;;;;;;;6.88;4.63;;;;;;;4.72;71.27;100489.31;5112480;28;20031;-61
2021/09/18 01:33:19;;;;;;;9.05;4.80;;;;;;;4.88;70.74;100496.59;5112353;28;20032;-61
2021/09/18 01:35:44;;;;;;;10.90;5.60;;;;;;;4.69;70.83;100451.44;5112196;28;20089;-61
2021/09/18 01:38:10;;;;;;;8.05;4.43;;;;;;;4.68;71.05;100494.81;5112075;28;20047;-61
2021/09/18 01:40:38;;;;;;;9.35;4.82;;;;;;;4.65;71.28;100501.16;5106952;28;20028;-61
2021/09/18 01:43:05;;;;;;;8.48;4.53;;;;;;;4.70;71.45;100499.13;5091809;28;20028;-61
2021/09/18 01:45:32;;;;;;;10.35;4.43;;;;;;;4.68;71.18;100501.00;5091600;28;20066;-60
2021/09/18 01:48:01;;;;;;;9.55;4.50;;;;;;;4.61;71.94;100504.88;5092211;28;20028;-61
2021/09/18 01:50:47;;;;;;;7.40;4.60;;;;;;;4.66;71.28;100500.22;5092162;28;20357;-61
2021/09/18 01:53:18;;;;;;;8.23;4.78;;;;;;;4.59;71.71;100498.78;5091812;28;20462;-61
2021/09/18 01:55:44;;;;;;;9.55;4.40;;;;;;;4.61;71.87;100499.56;5089989;28;20444;-59
2021/09/18 01:58:10;;;;;;;8.98;5.20;;;;;;;4.65;70.81;100495.84;5092265;28;20514;-60
2021/09/18 02:00:50;;;;;;;8.80;4.93;;;;;;;4.59;71.75;100499.63;5091577;28;20111;-61
2021/09/18 02:03:16;;;;;;;10.50;4.90;;;;;;;4.15;71.90;100455.59;5091271;28;20031;-60
2021/09/18 02:05:42;;;;;;;8.75;4.32;;;;;;;4.30;72.89;100487.66;5090987;28;20484;-60
2021/09/18 02:08:08;;;;;;;10.40;4.85;;;;;;;4.35;73.04;100503.34;5097392;28;20031;-61
2021/09/18 02:10:34;;;;;;;10.00;4.70;;;;;;;4.32;73.13;100504.34;5111207;28;20031;-61
2021/09/18 02:13:02;;;;;;;10.02;4.60;;;;;;;4.31;73.07;100508.81;5111148;27;20035;-61
2021/09/18 02:15:27;;;;;;;10.18;4.85;;;;;;;4.29;72.61;100499.19;5111368;28;20024;-61
2021/09/18 02:17:53;;;;;;;8.35;4.60;;;;;;;4.28;72.92;100503.63;5111903;28;20408;-61
2021/09/18 02:20:22;;;;;;;10.25;5.00;;;;;;;4.30;72.50;100506.19;5112198;28;20500;-60
2021/09/18 02:22:47;;;;;;;7.53;4.78;;;;;;;4.14;72.43;100483.03;5111840;28;20046;-60
2021/09/18 02:25:13;;;;;;;10.13;5.22;;;;;;;4.25;72.79;100509.06;5109142;28;20468;-61
2021/09/18 02:27:39;;;;;;;8.05;5.28;;;;;;;4.00;73.17;100480.97;5111408;28;20055;-60
2021/09/18 02:30:07;;;;;;;8.18;4.65;;;;;;;4.15;73.36;100511.25;5111701;28;20078;-60
2021/09/18 02:32:35;;;;;;;8.98;4.85;;;;;;;3.92;73.96;100479.56;5092954;28;20027;-60
2021/09/18 02:35:05;;;;;;;9.27;4.70;;;;;;;4.07;73.37;100518.66;5111169;28;20107;-58
2021/09/18 02:37:31;;;;;;;8.65;4.88;;;;;;;4.16;73.20;100515.63;5109657;28;20036;-61
2021/09/18 02:39:57;;;;;;;7.20;4.88;;;;;;;4.11;72.95;100507.03;5111229;28;20047;-60
2021/09/18 02:42:22;;;;;;;9.30;4.97;;;;;;;4.08;73.35;100530.13;5110869;28;20031;-60
2021/09/18 02:44:48;;;;;;;9.52;4.72;;;;;;;4.04;73.28;100545.28;5111318;28;20016;-59
2021/09/18 02:47:13;;;;;;;8.75;4.53;;;;;;;4.00;73.32;100535.75;5111001;28;20035;-60
2021/09/18 02:49:39;;;;;;;7.88;4.70;;;;;;;4.09;73.51;100545.09;5110798;28;20490;-61
2021/09/18 02:52:04;;;;;;;8.45;4.63;;;;;;;4.01;73.04;100533.03;5111139;28;20035;-60
2021/09/18 02:54:30;;;;;;;8.85;5.00;;;;;;;4.00;73.03;100536.63;5110590;28;20034;-61
2021/09/18 02:56:55;;;;;;;10.02;4.90;;;;;;;4.04;73.49;100541.78;5109440;28;20031;-61
2021/09/18 02:59:21;;;;;;;7.90;4.38;;;;;;;4.00;73.37;100541.03;5111252;28;20028;-61
2021/09/18 03:01:46;;;;;;;8.23;4.28;;;;;;;3.98;73.45;100542.91;5109812;28;20024;-60
2021/09/18 03:04:11;;;;;;;8.95;4.80;;;;;;;4.03;73.24;100538.25;5109638;28;20081;-61
2021/09/18 03:06:37;;;;;;;6.55;3.92;;;;;;;4.01;73.38;100542.75;5110960;28;20023;-60
2021/09/18 03:09:02;;;;;;;9.88;5.20;;;;;;;3.98;72.92;100541.13;5111138;28;20457;-61
2021/09/18 03:11:28;;;;;;;8.95;4.70;;;;;;;3.81;73.27;100520.59;5110801;28;20496;-61
2021/09/18 03:13:53;;;;;;;7.50;4.72;;;;;;;4.04;73.31;100537.34;5111124;28;20027;-61
2021/09/18 03:16:19;;;;;;;7.80;4.18;;;;;;;3.98;73.43;100540.25;5111404;28;20036;-59
2021/09/18 03:18:44;;;;;;;10.07;4.35;;;;;;;4.02;72.97;100549.78;5110791;28;20083;-60
2021/09/18 03:21:10;;;;;;;11.13;4.65;;;;;;;4.11;72.21;100538.81;5109798;28;20034;-60
2021/09/18 03:23:36;;;;;;;10.13;4.30;;;;;;;4.16;72.23;100550.09;5111225;28;20027;-62
2021/09/18 03:26:01;;;;;;;6.38;4.10;;;;;;;4.22;71.81;100545.44;5111223;28;20024;-59
2021/09/18 03:28:27;;;;;;;8.93;4.13;;;;;;;4.32;71.59;100552.06;5110371;28;20035;-60
2021/09/18 03:30:52;;;;;;;8.32;4.47;;;;;;;4.41;71.52;100545.50;5109864;28;20028;-61
2021/09/18 03:33:18;;;;;;;6.88;4.40;;;;;;;4.55;70.86;100547.56;5111262;28;20027;-61
2021/09/18 03:35:43;;;;;;;7.60;4.35;;;;;;;4.79;70.33;100544.75;5109421;28;20050;-60
2021/09/18 03:38:10;;;;;;;9.98;4.40;;;;;;;5.02;69.30;100554.31;5108895;28;20127;-60
2021/09/18 03:40:35;;;;;;;7.32;4.38;;;;;;;5.02;68.80;100538.41;5109263;28;20028;-61
2021/09/18 03:43:01;;;;;;;7.47;4.32;;;;;;;5.23;68.52;100564.88;5111023;28;20028;-62
2021/09/18 03:45:26;;;;;;;9.60;4.97;;;;;;;5.32;67.87;100553.81;5111333;28;20479;-62
2021/09/18 03:47:52;;;;;;;7.57;4.75;;;;;;;5.49;67.46;100558.34;5110687;28;20031;-61
2021/09/18 03:50:17;;;;;;;6.93;4.28;;;;;;;5.82;66.61;100560.31;5110583;28;20088;-62
2021/09/18 03:52:43;;;;;;;7.28;4.22;;;;;;;6.15;65.22;100562.25;5110754;28;20107;-62
2021/09/18 03:55:09;;;;;;;9.93;4.40;;;;;;;6.68;64.03;100551.59;5111170;28;20028;-61
2021/09/18 03:57:35;;;;;;;7.35;4.65;;;;;;;8.29;58.82;100556.91;5110275;28;20036;-63
2021/09/18 04:00:00;;;;;;;6.78;4.30;;;;;;;9.77;54.39;100559.38;5111518;28;20031;-62
2021/09/18 04:02:26;;;;;;;8.65;3.92;;;;;;;10.95;50.49;100558.66;5114643;28;20031;-62
2021/09/18 04:04:51;;;;;;;11.48;4.65;;;;;;;12.13;47.71;100558.22;5114529;28;20111;-62
2021/09/18 04:07:17;;;;;;;7.32;4.10;;;;;;;13.13;44.92;100546.06;5113881;28;20757;-61
2021/09/18 04:09:42;;;;;;;6.90;3.75;;;;;;;14.17;42.54;100549.25;5113883;28;20031;-61
2021/09/18 04:12:07;;;;;;;6.68;3.80;;;;;;;15.27;39.79;100548.91;5114146;28;20023;-61
2021/09/18 04:14:33;;;;;;;7.57;4.32;;;;;;;15.82;38.50;100551.19;5113073;28;20027;-61
2021/09/18 04:16:58;;;;;;;7.60;3.80;;;;;;;16.07;37.74;100543.53;5113542;28;20106;-61
2021/09/18 04:19:24;;;;;;;8.68;4.22;;;;;;;16.75;36.25;100561.53;5114039;28;20039;-61
2021/09/18 04:21:49;;;;;;;7.13;3.97;;;;;;;17.16;35.55;100552.31;5114122;28;20029;-60
2021/09/18 04:24:15;;;;;;;6.80;3.78;;;;;;;16.82;35.69;100560.94;5113960;28;20049;-62
2021/09/18 04:26:40;;;;;;;8.48;3.92;;;;;;;17.06;35.04;100565.88;5113146;28;20036;-61
2021/09/18 04:29:06;;;;;;;6.63;3.92;;;;;;;17.42;34.30;100557.03;5113458;28;20027;-61
2021/09/18 04:31:31;;;;;;;6.95;4.00;;;;;;;18.07;33.22;100553.34;5113400;28;20027;-60
2021/09/18 04:33:57;;;;;;;8.27;4.03;;;;;;;18.65;31.60;100549.22;5112218;28;20069;-61
2021/09/18 04:36:23;;;;;;;7.90;4.20;;;;;;;19.43;30.26;100548.47;5113546;28;20039;-61
2021/09/18 04:38:48;;;;;;;6.75;4.40;;;;;;;20.26;28.98;100549.50;5113327;28;20498;-60
2021/09/18 04:41:14;;;;;;;8.02;4.40;;;;;;;21.04;27.60;100547.22;5113368;28;20084;-61
2021/09/18 04:43:39;;;;;;;9.07;4.55;;;;;;;21.20;27.35;100546.31;5113156;28;20394;-61
2021/09/18 04:46:05;;;;;;;6.80;4.78;;;;;;;21.56;26.81;100546.81;5113153;28;20092;-61
2021/09/18 04:48:31;;;;;;;5.72;3.83;;;;;;;22.01;26.06;100549.81;5113530;28;20039;-61
2021/09/18 04:50:56;;;;;;;6.95;4.25;;;;;;;22.18;25.56;100535.00;5113205;28;20031;-61
2021/09/18 04:53:22;;;;;;;7.05;4.07;;;;;;;22.60;25.11;100545.59;5113012;28;20088;-61
2021/09/18 04:55:48;;;;;;;10.50;4.30;;;;;;;23.20;24.00;100534.69;5113590;28;20126;-60
2021/09/18 04:58:14;;;;;;;7.35;4.50;;;;;;;23.36;23.53;100544.59;5112912;28;20036;-60
2021/09/18 05:00:39;;;;;;;6.55;4.30;;;;;;;23.58;23.16;100520.88;5112677;28;20024;-61
2021/09/18 05:03:05;;;;;;;5.07;4.05;;;;;;;24.19;22.68;100530.59;5113427;28;20024;-62
2021/09/18 05:05:31;;;;;;;5.70;3.45;;;;;;;24.97;21.41;100550.78;5112680;28;20077;-61
2021/09/18 05:07:56;;;;;;;4.20;3.45;;;;;;;25.20;21.08;100538.69;5113090;28;20475;-62
2021/09/18 05:10:22;;;;;;;4.75;3.28;;;;;;;25.13;21.05;100537.81;5112988;28;20123;-60
2021/09/18 05:12:47;;;;;;;5.03;3.03;;;;;;;25.04;20.79;100551.66;5112942;28;20420;-61
2021/09/18 05:15:13;;;;;;;3.25;2.95;;;;;;;24.09;22.35;100543.72;5112460;28;20031;-60
2021/09/18 05:17:39;;;;;;;4.20;2.92;;;;;;;22.71;23.28;100547.88;5112275;28;20035;-61
2021/09/18 05:20:06;;;;;;;6.47;3.20;;;;;;;21.95;24.38;100551.38;5112647;28;20031;-61
2021/09/18 05:22:31;;;;;;;6.93;2.53;;;;;;;22.19;24.18;100552.22;5112835;28;20032;-61
2021/09/18 05:24:57;;;;;;;3.55;2.58;;;;;;;22.37;23.97;100557.34;5112465;28;20041;-63
2021/09/18 05:27:22;;;;;;;3.08;2.47;;;;;;;23.04;23.15;100533.84;5112547;28;20107;-62
2021/09/18 05:29:48;;;;;;;4.10;2.33;;;;;;;24.02;22.26;100549.16;5112626;28;20039;-61
2021/09/18 05:32:13;;;;;;;2.83;2.17;;;;;;;23.89;21.81;100551.72;5112235;28;20062;-62
2021/09/18 05:34:39;;;;;;;2.13;1.92;;;;;;;22.93;23.01;100562.47;5112080;28;20111;-62
2021/09/18 05:37:05;;;;;;;2.65;2.30;;;;;;;23.04;22.77;100552.97;5112498;28;20454;-61
2021/09/18 05:39:30;;;;;;;3.45;2.10;;;;;;;23.44;22.23;100560.03;5112977;28;20644;-61
2021/09/18 05:41:56;;;;;;;4.90;2.58;;;;;;;23.41;22.27;100564.00;5112060;28;20471;-61
2021/09/18 05:44:22;;;;;;;2.83;2.33;;;;;;;23.69;21.51;100532.38;5112110;28;20370;-62
2021/09/18 05:46:47;;;;;;;3.13;2.10;;;;;;;24.05;21.35;100575.25;5111719;28;20119;-61
2021/09/18 05:49:13;;;;;;;2.33;1.90;;;;;;;24.07;21.13;100579.50;5111361;28;20088;-63
2021/09/18 05:51:39;;;;;;;3.08;2.42;;;;;;;23.95;21.59;100564.59;5111003;28;20035;-64
2021/09/18 05:54:04;;;;;;;3.00;2.03;;;;;;;25.11;20.67;100562.66;5111676;27;20032;-62
2021/09/18 05:56:30;;;;;;;6.43;2.30;;;;;;;26.83;18.63;100568.13;5111818;28;20063;-61
2021/09/18 05:58:55;;;;;;;2.35;2.15;;;;;;;28.02;17.53;100567.09;5112613;28;20387;-61
2021/09/18 06:01:21;;;;;;;5.60;1.98;;;;;;;28.67;16.85;100571.44;5111920;28;20066;-62
2021/09/18 06:03:46;;;;;;;2.35;2.00;;;;;;;28.55;16.84;100576.03;5111785;28;20431;-61
2021/09/18 06:06:12;;;;;;;3.60;1.92;;;;;;;27.37;17.64;100544.97;5110645;28;20028;-62
2021/09/18 06:08:37;;;;;;;4.15;2.05;;;;;;;26.27;18.48;100573.00;5112308;28;20020;-62
2021/09/18 06:11:03;;;;;;;3.90;2.10;;;;;;;26.74;18.46;100562.84;5112129;28;20023;-64
2021/09/18 06:13:28;;;;;;;2.50;2.05;;;;;;;27.53;17.87;100567.56;5111484;28;20027;-62
2021/09/18 06:15:54;;;;;;;2.78;1.90;;;;;;;28.04;17.17;100554.78;5099685;28;20135;-64
2021/09/18 06:18:20;;;;;;;3.70;2.00;;;;;;;27.67;16.69;100531.72;5075157;28;20051;-63
2021/09/18 06:20:45;;;;;;;2.10;1.90;;;;;;;27.14;17.48;100570.22;5087079;28;20543;-63
2021/09/18 06:23:11;;;;;;;4.22;1.95;;;;;;;26.88;17.82;100576.59;5086366;28;20112;-64
2021/09/18 06:25:36;;;;;;;6.13;2.10;;;;;;;27.51;17.33;100559.53;5086713;28;20035;-65
2021/09/18 06:28:02;;;;;;;3.50;1.80;;;;;;;29.03;15.79;100572.63;5061431;28;20036;-64
2021/09/18 06:30:28;;;;;;;2.85;2.00;;;;;;;28.99;15.60;100563.13;5076755;28;20016;-64
2021/09/18 06:32:54;;;;;;;2.22;2.03;;;;;;;28.64;15.86;100566.41;5069748;28;20448;-64
2021/09/18 06:35:19;;;;;;;2.17;1.98;;;;;;;28.77;16.02;100559.91;5070346;28;20433;-63
2021/09/18 06:37:47;;;;;;;1.70;1.60;;;;;;;29.40;15.77;100568.16;5070476;28;20036;-63
2021/09/18 06:40:15;;;;;;;3.55;1.60;;;;;;;30.18;15.23;100568.41;5070724;28;20051;-64
2021/09/18 06:42:41;;;;;;;5.38;1.98;;;;;;;31.31;13.70;100561.97;5078724;28;20119;-64
2021/09/18 06:45:08;;;;;;;3.10;2.00;;;;;;;31.92;13.57;100558.75;5070596;28;20112;-64
2021/09/18 06:47:34;;;;;;;3.80;2.10;;;;;;;30.91;14.04;100568.28;5070726;28;20387;-62
2021/09/18 06:50:00;;;;;;;3.88;1.95;;;;;;;30.06;14.64;100560.09;5070653;28;20499;-63
2021/09/18 06:52:27;;;;;;;3.95;2.53;;;;;;;30.26;14.55;100537.69;5082400;28;20051;-64
2021/09/18 06:54:52;;;;;;;3.42;2.30;;;;;;;30.93;14.05;100557.81;5090659;28;20459;-63
2021/09/18 06:57:18;;;;;;;2.60;2.38;;;;;;;31.30;13.22;100556.69;5088775;28;20032;-63
2021/09/18 06:59:43;;;;;;;3.72;2.65;;;;;;;30.64;13.78;100554.94;5090582;28;20146;-64
2021/09/18 07:02:09;;;;;;;4.28;3.00;;;;;;;30.77;13.49;100564.91;5090491;28;20361;-64
2021/09/18 07:04:35;;;;;;;5.70;2.97;;;;;;;31.55;13.11;100564.66;5090545;28;20146;-63
2021/09/18 07:07:02;;;;;;;4.68;3.25;;;;;;;32.61;12.39;100561.59;5090810;28;20032;-64
2021/09/18 07:09:28;;;;;;;4.95;2.90;;;;;;;33.84;11.35;100557.91;5080017;28;20028;-63
2021/09/18 07:11:54;;;;;;;6.80;3.13;;;;;;;34.54;10.69;100559.97;5070158;28;20396;-62
2021/09/18 07:14:19;;;;;;;3.35;1.95;;;;;;;35.38;9.88;100565.75;5070069;28;20028;-66
2021/09/18 07:16:45;;;;;;;4.50;2.60;;;;;;;36.08;9.20;100547.81;5069488;28;20036;-63
2021/09/18 07:19:10;;;;;;;3.58;2.50;;;;;;;35.86;9.71;100551.66;5070301;28;20449;-64
2021/09/18 07:21:37;;;;;;;5.47;2.35;;;;;;;36.18;9.48;100553.41;5068787;28;20028;-63
2021/09/18 07:24:03;;;;;;;3.88;2.63;;;;;;;35.81;9.71;100562.81;5070642;28;20048;-64
2021/09/18 07:26:29;;;;;;;3.78;2.20;;;;;;;36.05;9.36;100552.03;5071088;28;20077;-64
2021/09/18 07:28:54;;;;;;;2.50;2.08;;;;;;;35.97;9.13;100562.84;5068863;28;20036;-64
2021/09/18 07:31:20;;;;;;;2.00;1.80;;;;;;;34.55;10.17;100556.09;5068212;28;20123;-63
2021/09/18 07:33:45;;;;;;;3.05;2.35;;;;;;;34.26;10.49;100550.84;5051486;28;20468;-61
2021/09/18 07:36:11;;;;;;;6.05;2.20;;;;;;;34.38;10.35;100540.34;5072045;28;20048;-64
2021/09/18 07:38:38;;;;;;;7.45;2.75;;;;;;;34.44;10.45;100542.06;5073385;28;20040;-62
2021/09/18 07:41:03;;;;;;;4.10;2.30;;;;;;;32.19;11.17;100537.88;5072487;28;20064;-62
2021/09/18 07:43:29;;;;;;;5.13;2.90;;;;;;;31.62;11.67;100547.91;5071602;28;20056;-66
2021/09/18 07:45:54;;;;;;;5.53;2.75;;;;;;;30.78;13.08;100548.06;5073131;28;20115;-68
2021/09/18 07:48:30;;;;;;;4.30;2.40;;;;;;;30.39;12.82;100569.78;5072606;28;20126;-64
2021/09/18 07:50:57;;;;;;;3.58;1.98;;;;;;;27.89;14.92;100559.75;5070891;28;20036;-65
2021/09/18 07:53:22;;;;;;;3.42;1.90;;;;;;;25.13;17.46;100556.97;5038029;28;20078;-63
2021/09/18 07:55:48;;;;;;;3.50;2.45;;;;;;;22.99;19.92;100546.38;5073114;28;20028;-68
2021/09/18 07:58:15;;;;;;;2.92;2.30;;;;;;;21.70;21.28;100572.47;5070829;28;20044;-67
2021/09/18 08:00:41;;;;;;;3.72;2.22;;;;;;;19.79;24.02;100564.56;5071732;28;20420;-65
2021/09/18 08:03:07;;;;;;;3.17;2.40;;;;;;;18.76;25.24;100558.97;5073122;28;20036;-67
2021/09/18 08:05:32;;;;;;;2.67;2.28;;;;;;;17.28;27.68;100561.94;5073425;28;20070;-66
2021/09/18 08:07:57;;;;;;;3.25;2.20;;;;;;;16.19;29.17;100531.63;5090475;28;20483;-67
2021/09/18 08:10:23;;;;;;;5.95;2.75;;;;;;;15.56;30.58;100567.06;5090500;28;20020;-67
2021/09/18 08:12:48;;;;;;;3.30;2.05;;;;;;;14.75;32.42;100536.34;5092875;28;20101;-66
2021/09/18 08:15:18;;;;;;;2.95;2.65;;;;;;;14.05;33.59;100545.75;5079083;28;20033;-67
2021/09/18 08:17:45;;;;;;;3.33;2.53;;;;;;;13.77;34.27;100544.53;5072187;28;20388;-67
2021/09/18 08:20:11;;;;;;;3.33;2.33;;;;;;;13.25;35.50;100561.22;5076142;28;20024;-68
2021/09/18 08:22:37;;;;;;;3.70;2.10;;;;;;;12.90;36.03;100544.25;5092672;28;20028;-67
2021/09/18 08:25:04;;;;;;;3.05;2.30;;;;;;;12.77;36.71;100557.78;5091805;28;20028;-67
2021/09/18 08:27:30;;;;;;;5.03;2.67;;;;;;;12.60;37.13;100566.31;5092351;28;20032;-67
2021/09/18 08:29:55;;;;;;;3.05;1.88;;;;;;;12.60;37.25;100566.31;5091470;28;20160;-67
2021/09/18 08:32:21;;;;;;;1.90;1.33;;;;;;;13.12;36.25;100549.75;5092194;28;20034;-67
2021/09/18 08:34:46;;;;;;;2.88;1.95;;;;;;;13.04;36.70;100553.03;5082517;28;20433;-68
2021/09/18 08:37:12;;;;;;;2.88;1.88;;;;;;;12.74;37.42;100524.94;5074346;28;20044;-67
2021/09/18 08:39:38;;;;;;;2.75;1.95;;;;;;;13.20;37.04;100555.34;5089311;28;20028;-67
2021/09/18 08:42:06;;;;;;;2.17;1.50;;;;;;;13.52;35.69;100545.69;5078645;28;20067;-67
2021/09/18 08:44:33;;;;;;;2.80;1.50;;;;;;;13.67;35.94;100543.56;5081356;28;20036;-67
2021/09/18 08:47:00;;;;;;;2.30;1.40;;;;;;;13.93;35.17;100550.34;5077128;28;20024;-66
2021/09/18 08:49:27;;;;;;;1.90;1.13;;;;;;;14.36;34.07;100545.00;5081408;28;20195;-67
2021/09/18 08:51:53;;;;;;;2.05;1.35;;;;;;;14.18;34.92;100548.28;5089738;28;20115;-72
2021/09/18 08:54:18;;;;;;;2.08;1.13;;;;;;;14.36;34.71;100545.00;5091201;28;20403;-60
2021/09/18 08:56:44;;;;;;;2.20;1.33;;;;;;;14.57;33.86;100528.00;5082471;28;20214;-59
2021/09/18 08:59:09;;;;;;;2.00;1.50;;;;;;;14.61;33.98;100540.22;5071555;28;20032;-63
2021/09/18 09:01:35;;;;;;;2.80;1.45;;;;;;;14.84;33.38;100550.88;5071197;28;20028;-61
2021/09/18 09:04:05;;;;;;;2.33;1.58;;;;;;;15.07;33.05;100540.75;5072008;28;20044;-60
2021/09/18 09:06:49;;;;;;;4.72;1.65;;;;;;;15.47;32.44;100547.16;5070648;28;20181;-60
2021/09/18 09:09:15;;;;;;;2.28;1.20;;;;;;;15.57;32.26;100549.88;5071790;28;20122;-60
2021/09/18 09:11:53;;;;;;;2.65;1.58;;;;;;;15.74;32.12;100540.25;5072794;28;20064;-62
2021/09/18 09:14:19;;;;;;;2.92;1.33;;;;;;;15.77;32.30;100542.66;5091987;28;20099;-60
2021/09/18 09:17:04;;;;;;;2.65;1.50;;;;;;;16.01;31.40;100536.84;5092146;28;20566;-62
2021/09/18 09:19:37;;;;;;;;;;;;;;;16.32;31.03;100547.53;5092535;28;20032;-62
2021/09/18 09:22:03;;;;;;;1.63;1.45;;;;;;;15.96;31.42;100541.84;5082911;28;19924;-62
2021/09/18 09:24:29;;;;;;;3.28;1.60;;;;;;;15.16;32.54;100531.84;5074120;28;20044;-61
2021/09/18 09:27:13;;;;;;;5.38;1.52;;;;;;;14.50;34.12;100546.53;5088823;28;20333;-61
2021/09/18 09:29:40;;;;;;;3.08;1.50;;;;;;;13.88;35.05;100527.50;5077044;28;20039;-61
2021/09/18 09:32:30;;;;;;;1.73;1.42;;;;;;;13.90;35.13;100539.00;5078816;28;20032;-61
2021/09/18 09:34:56;;;;;;;2.33;1.35;;;;;;;13.68;35.63;100530.00;5089068;28;20690;-62
2021/09/18 09:37:23;;;;;;;4.25;1.55;;;;;;;13.40;36.74;100534.94;5090072;28;20540;-62
2021/09/18 09:39:55;;;;;;;3.85;1.73;;;;;;;13.45;36.56;100531.88;5091345;28;20066;-61
2021/09/18 09:42:32;;;;;;;2.38;1.60;;;;;;;13.44;36.39;100543.63;5092565;28;20051;-61
2021/09/18 09:45:17;;;;;;;2.42;1.50;;;;;;;13.06;36.94;100533.13;5091929;28;20493;-62
2021/09/18 09:47:59;;;;;;;2.38;1.88;;;;;;;12.88;37.66;100530.06;5092037;28;20039;-64
2021/09/18 09:50:24;;;;;;;4.05;2.17;;;;;;;12.64;38.16;100532.84;5092198;28;20028;-61
2021/09/18 09:52:50;;;;;;;2.65;1.75;;;;;;;12.60;38.53;100552.88;5091846;28;20361;-62
2021/09/18 09:55:18;;;;;;;2.42;1.58;;;;;;;12.63;38.07;100552.63;5091865;28;20452;-59
2021/09/18 09:57:55;;;;;;;2.45;1.70;;;;;;;12.39;38.68;100553.56;5090720;28;20028;-62
2021/09/18 10:00:21;;;;;;;4.60;1.83;;;;;;;11.99;39.75;100537.75;5090399;28;20032;-60
2021/09/18 10:02:46;;;;;;;4.18;2.00;;;;;;;11.83;40.24;100538.94;5090449;28;20084;-62
2021/09/18 10:05:14;;;;;;;3.28;2.00;;;;;;;11.97;39.63;100547.75;5091885;28;20123;-61
2021/09/18 10:07:40;;;;;;;4.57;2.22;;;;;;;12.09;39.58;100548.69;5091933;28;20024;-61
2021/09/18 10:10:08;;;;;;;2.63;1.90;;;;;;;12.07;38.86;100546.13;5091610;28;20028;-62
2021/09/18 10:12:35;;;;;;;2.95;1.83;;;;;;;12.04;39.04;100544.53;5090123;28;20518;-62
2021/09/18 10:15:04;;;;;;;2.97;2.03;;;;;;;12.18;39.42;100538.09;5091234;28;20391;-60
2021/09/18 10:17:32;;;;;;;3.42;2.05;;;;;;;12.31;39.02;100543.41;5090824;28;20491;-61
2021/09/18 10:20:09;;;;;;;5.03;2.30;;;;;;;12.48;39.20;100544.78;5089482;28;20021;-61
2021/09/18 10:25:38;;;;;;;3.28;2.22;;;;;;;12.76;38.77;100544.47;5091131;28;20039;-61
2021/09/18 10:28:11;;;;;;;2.13;1.90;;;;;;;12.83;38.22;100545.69;5090550;28;20032;-61
2021/09/18 10:30:47;;;;;;;2.47;1.90;;;;;;;12.99;38.24;100548.00;5089262;28;20024;-62
2021/09/18 10:33:34;;;;;;;3.88;1.60;;;;;;;13.10;38.02;100547.16;5089491;28;20030;-63
2021/09/18 10:36:18;;;;;;;8.20;2.08;;;;;;;13.16;38.29;100540.44;5089682;28;20093;-63
2021/09/18 10:38:50;;;;;;;2.13;1.50;;;;;;;13.39;37.98;100543.97;5089520;28;20032;-61
2021/09/18 10:41:19;;;;;;;5.63;2.03;;;;;;;13.49;37.42;100541.41;5089960;28;20031;-63
2021/09/18 10:43:50;;;;;;;4.43;1.88;;;;;;;13.46;37.93;100549.72;5088753;28;20032;-60
2021/09/18 10:46:37;;;;;;;2.50;1.60;;;;;;;13.30;37.78;100552.78;5089917;28;20045;-63
2021/09/18 10:49:03;;;;;;;2.78;1.90;;;;;;;12.67;39.37;100543.34;5090999;28;20054;-62
2021/09/18 10:51:40;;;;;;;4.20;2.10;;;;;;;12.51;40.34;100549.06;5091271;28;20476;-62
2021/09/18 10:54:16;;;;;;;3.03;1.67;;;;;;;12.39;40.55;100548.19;5068393;28;20376;-62
2021/09/18 10:57:06;;;;;;;3.03;1.95;;;;;;;12.33;40.89;100552.19;5068534;28;20383;-62
2021/09/18 10:59:54;;;;;;;6.63;2.30;;;;;;;12.43;40.81;100546.97;5088654;27;20374;-63
2021/09/18 11:02:33;;;;;;;2.80;2.25;;;;;;;12.54;40.40;100538.09;5088125;27;20052;-63
2021/09/18 11:05:16;;;;;;;5.22;2.10;;;;;;;12.58;40.46;100549.47;5068388;28;20383;-61
2021/09/18 11:08:04;;;;;;;4.05;1.67;;;;;;;12.43;40.31;100532.69;5068383;28;20379;-62
2021/09/18 11:10:43;;;;;;;2.10;1.50;;;;;;;12.77;39.56;100544.34;5129046;27;20827;-62
2021/09/18 11:13:52;;;;;;;2.38;1.90;;;;;;;12.63;39.54;100547.25;5108802;27;20369;-60
2021/09/18 11:16:42;;;;;;;2.42;1.50;;;;;;;12.29;40.78;100539.09;5068140;28;20368;-64
2021/09/18 11:19:23;;;;;;;5.30;2.58;;;;;;;12.19;41.03;100547.03;5068293;28;20705;-61
2021/09/18 11:22:11;;;;;;;3.75;2.00;;;;;;;12.22;41.17;100540.56;5068150;28;20410;-61
2021/09/18 11:25:31;;;;;;;3.67;1.95;;;;;;;12.47;40.48;100540.38;5088559;27;20404;-63
2021/09/18 11:28:20;;;;;;;4.10;2.10;;;;;;;12.32;41.33;100538.91;5088663;27;20370;-63
2021/09/18 11:30:56;;;;;;;3.25;1.98;;;;;;;12.35;41.04;100528.75;5068345;28;20380;-63
2021/09/18 11:33:32;;;;;;;3.90;2.08;;;;;;;12.50;40.63;100533.94;5107521;27;1314085;-62